Time;durP1;ratioP1;P1;durP2;ratioP2;P2;SDS_P1;SDS_P2;PMS_P1;PMS_P2;Temp;Humidity;BMP_temperature;BMP_pressure;BME280_temperature;BME280_humidity;BME280_pressure;Samples;Min_cycle;Max_cycle;Signal;HPM_P1;HPM_P2
2022/03/29 00:01:52;;;;;;;21.92;11.60;;;;;;;;;;10193262;28;20138;-58
2022/03/29 00:06:50;;;;;;;16.83;11.23;;;;;;;;;;10193398;28;20149;-58
2022/03/29 00:11:49;;;;;;;21.33;13.50;;;;;;;;;;10187374;28;20073;-59
2022/03/29 00:22:46;;;;;;;21.50;12.07;;;;;;;;;;10194123;28;20081;-59
2022/03/29 00:27:45;;;;;;;17.73;11.40;;;;;;;;;;10188353;28;20077;-59
2022/03/29 00:32:44;;;;;;;20.48;11.68;;;;;;;;;;10186828;28;20507;-59
2022/03/29 00:37:43;;;;;;;17.58;12.50;;;;;;;;;;10190261;28;20388;-59
2022/03/29 00:42:43;;;;;;;16.55;12.23;;;;;;;;;;10192843;28;20104;-60
2022/03/29 00:47:41;;;;;;;17.23;12.30;;;;;;;;;;10192495;28;21094;-59
2022/03/29 00:52:40;;;;;;;16.95;12.07;;;;;;;;;;10191725;28;20074;-58
2022/03/29 00:57:38;;;;;;;17.38;12.13;;;;;;;;;;10181307;28;20070;-58
2022/03/29 01:02:38;;;;;;;19.52;10.98;;;;;;;;;;10186788;28;20112;-58
2022/03/29 01:07:36;;;;;;;18.35;12.00;;;;;;;;;;10185081;28;20076;-57
2022/03/29 01:12:36;;;;;;;22.95;11.68;;;;;;;;;;10180131;28;20069;-58
2022/03/29 01:17:40;;;;;;;24.35;12.65;;;;;;;;;;10184046;28;20076;-58
2022/03/29 01:22:44;;;;;;;22.85;12.48;;;;;;;;;;10185358;28;20084;-58
2022/03/29 01:27:43;;;;;;;18.40;11.82;;;;;;;;;;10182941;28;20082;-59
2022/03/29 01:32:43;;;;;;;19.63;11.88;;;;;;;;;;10188163;28;20069;-58
2022/03/29 01:37:43;;;;;;;19.38;11.30;;;;;;;;;;10196409;28;20077;-58
2022/03/29 01:42:47;;;;;;;23.10;11.48;;;;;;;;;;10197097;28;20080;-59
2022/03/29 01:47:45;;;;;;;16.02;11.90;;;;;;;;;;10190355;28;20073;-58
2022/03/29 01:52:46;;;;;;;15.82;11.85;;;;;;;;;;10191796;28;20085;-58
2022/03/29 01:57:45;;;;;;;21.20;11.93;;;;;;;;;;10196571;28;20073;-59
2022/03/29 02:02:43;;;;;;;17.65;11.48;;;;;;;;;;10197202;28;20082;-58
2022/03/29 02:07:43;;;;;;;20.55;11.07;;;;;;;;;;10197367;28;20485;-58
2022/03/29 02:12:43;;;;;;;17.83;11.52;;;;;;;;;;10189119;28;20085;-58
2022/03/29 02:17:41;;;;;;;20.58;12.05;;;;;;;;;;10187622;28;20077;-58
2022/03/29 02:22:40;;;;;;;20.75;11.43;;;;;;;;;;10194018;28;20553;-58
2022/03/29 02:27:38;;;;;;;15.18;11.95;;;;;;;;;;10195506;28;20070;-58
2022/03/29 02:32:39;;;;;;;20.98;12.43;;;;;;;;;;10190978;28;20069;-58
2022/03/29 02:37:37;;;;;;;17.52;12.25;;;;;;;;;;10194136;28;20069;-55
2022/03/29 02:42:40;;;;;;;19.10;11.35;;;;;;;;;;10194594;28;20088;-58
2022/03/29 02:47:40;;;;;;;16.23;11.30;;;;;;;;;;10181198;28;20572;-58
2022/03/29 02:52:43;;;;;;;20.10;13.27;;;;;;;;;;10189196;28;20100;-58
2022/03/29 02:57:41;;;;;;;23.75;13.25;;;;;;;;;;10189037;28;20104;-58
2022/03/29 03:02:41;;;;;;;22.75;12.63;;;;;;;;;;10190830;28;20090;-59
2022/03/29 03:07:40;;;;;;;16.50;10.65;;;;;;;;;;10191249;28;20058;-59
2022/03/29 03:12:38;;;;;;;17.85;11.80;;;;;;;;;;10187593;28;20475;-59
2022/03/29 03:17:37;;;;;;;21.95;12.40;;;;;;;;;;10187592;28;20062;-58
2022/03/29 03:22:37;;;;;;;17.75;12.20;;;;;;;;;;10188223;28;20092;-58
2022/03/29 03:27:36;;;;;;;18.40;10.30;;;;;;;;;;10188119;28;20080;-58
2022/03/29 03:32:34;;;;;;;19.77;11.57;;;;;;;;;;10187660;28;20073;-59
2022/03/29 03:37:33;;;;;;;17.40;12.55;;;;;;;;;;10188328;28;20065;-57
2022/03/29 03:42:33;;;;;;;20.55;11.88;;;;;;;;;;10189028;28;20077;-59
2022/03/29 03:47:31;;;;;;;19.55;12.48;;;;;;;;;;10189801;28;20507;-58
2022/03/29 03:52:29;;;;;;;19.02;13.45;;;;;;;;;;10186914;28;20541;-59
2022/03/29 03:57:27;;;;;;;23.70;13.00;;;;;;;;;;10185184;28;20076;-57
2022/03/29 04:02:27;;;;;;;19.77;12.63;;;;;;;;;;10188386;28;20089;-57
2022/03/29 04:07:26;;;;;;;18.25;13.15;;;;;;;;;;10180554;28;20080;-58
2022/03/29 04:12:24;;;;;;;18.23;12.13;;;;;;;;;;10186672;28;20046;-58
2022/03/29 04:17:22;;;;;;;22.58;13.35;;;;;;;;;;10187648;28;20484;-59
2022/03/29 04:22:22;;;;;;;20.23;14.13;;;;;;;;;;10188279;28;20456;-58
2022/03/29 04:27:20;;;;;;;24.17;13.32;;;;;;;;;;10192121;28;20118;-59
2022/03/29 04:32:19;;;;;;;30.58;14.27;;;;;;;;;;10192023;28;20708;-58
2022/03/29 04:37:17;;;;;;;25.58;13.50;;;;;;;;;;10186739;28;20076;-58
2022/03/29 04:42:18;;;;;;;22.00;12.80;;;;;;;;;;10192572;28;20084;-57
2022/03/29 04:47:16;;;;;;;21.52;15.07;;;;;;;;;;10192010;28;20074;-59
2022/03/29 04:52:15;;;;;;;17.77;12.65;;;;;;;;;;10191782;28;20279;-59
2022/03/29 04:57:13;;;;;;;21.52;13.10;;;;;;;;;;10185452;28;20328;-59
2022/03/29 05:02:12;;;;;;;28.05;15.50;;;;;;;;;;10182081;28;20104;-60
2022/03/29 05:07:11;;;;;;;26.20;13.43;;;;;;;;;;10190694;28;20122;-60
2022/03/29 05:12:09;;;;;;;18.25;12.55;;;;;;;;;;10193505;28;20077;-57
2022/03/29 05:17:07;;;;;;;20.13;13.15;;;;;;;;;;10191478;28;20084;-55
2022/03/29 05:22:07;;;;;;;18.77;12.77;;;;;;;;;;10188730;28;20105;-58
2022/03/29 05:27:06;;;;;;;21.30;13.25;;;;;;;;;;10199122;28;20073;-58
2022/03/29 05:32:04;;;;;;;21.98;13.10;;;;;;;;;;10173808;28;20066;-58
2022/03/29 05:37:03;;;;;;;18.83;12.25;;;;;;;;;;10184963;28;20452;-56
2022/03/29 05:42:03;;;;;;;19.52;13.85;;;;;;;;;;10197301;28;20069;-58
2022/03/29 05:52:17;;;;;;;37.55;14.93;;;;;;;;;;10198160;28;20491;-58
2022/03/29 05:57:19;;;;;;;17.38;12.95;;;;;;;;;;10189997;28;20081;-58
2022/03/29 06:02:17;;;;;;;21.75;12.07;;;;;;;;;;10192485;28;20085;-56
2022/03/29 06:07:16;;;;;;;23.05;13.27;;;;;;;;;;10190680;28;20509;-58
2022/03/29 06:12:20;;;;;;;26.70;12.98;;;;;;;;;;10190728;28;20062;-58
2022/03/29 06:17:20;;;;;;;26.43;13.87;;;;;;;;;;10190572;28;20068;-58
2022/03/29 06:22:18;;;;;;;29.20;13.02;;;;;;;;;;10190507;28;20070;-59
2022/03/29 06:27:16;;;;;;;19.17;12.07;;;;;;;;;;10188511;28;20462;-58
2022/03/29 06:32:15;;;;;;;17.17;11.68;;;;;;;;;;10177779;28;20069;-58
2022/03/29 06:37:14;;;;;;;19.05;12.25;;;;;;;;;;10184309;28;20076;-58
2022/03/29 06:42:18;;;;;;;36.10;15.73;;;;;;;;;;10190284;28;20077;-58
2022/03/29 06:47:16;;;;;;;22.45;14.02;;;;;;;;;;10189805;28;20070;-58
2022/03/29 06:52:16;;;;;;;41.20;18.08;;;;;;;;;;10191549;28;20478;-59
2022/03/29 06:57:15;;;;;;;19.65;13.20;;;;;;;;;;10191225;28;20073;-59
2022/03/29 07:02:13;;;;;;;24.75;13.95;;;;;;;;;;10190698;28;20553;-59
2022/03/29 07:07:12;;;;;;;24.20;12.68;;;;;;;;;;10191008;28;20482;-59
2022/03/29 07:12:13;;;;;;;24.90;13.38;;;;;;;;;;10190382;28;20073;-59
2022/03/29 07:17:13;;;;;;;24.45;13.48;;;;;;;;;;10190402;28;20054;-59
2022/03/29 07:22:11;;;;;;;24.55;12.40;;;;;;;;;;10190212;28;20503;-59
2022/03/29 07:27:10;;;;;;;23.00;12.10;;;;;;;;;;10189073;28;20088;-58
2022/03/29 07:32:10;;;;;;;18.02;11.98;;;;;;;;;;10189552;28;20740;-58
2022/03/29 07:37:14;;;;;;;23.23;10.23;;;;;;;;;;10187023;28;20104;-58
2022/03/29 07:42:12;;;;;;;21.17;11.23;;;;;;;;;;10189676;28;20458;-59
2022/03/29 07:47:12;;;;;;;17.38;10.82;;;;;;;;;;10194046;28;20077;-59
2022/03/29 07:52:10;;;;;;;25.17;11.82;;;;;;;;;;10193586;28;20100;-58
2022/03/29 07:57:09;;;;;;;19.25;9.93;;;;;;;;;;10192075;28;20096;-59
2022/03/29 08:02:30;;;;;;;16.33;11.38;;;;;;;;;;10187795;28;20476;-58
2022/03/29 08:07:28;;;;;;;19.67;10.25;;;;;;;;;;10187655;28;20072;-58
2022/03/29 08:12:27;;;;;;;17.05;10.40;;;;;;;;;;10188227;28;20061;-59
2022/03/29 08:17:26;;;;;;;19.58;12.27;;;;;;;;;;10187478;28;20484;-59
2022/03/29 08:22:26;;;;;;;18.65;10.52;;;;;;;;;;10187611;28;20480;-59
2022/03/29 08:27:24;;;;;;;20.10;11.32;;;;;;;;;;10187329;28;20073;-59
2022/03/29 08:32:22;;;;;;;24.63;11.05;;;;;;;;;;10187600;28;20486;-60
2022/03/29 08:37:21;;;;;;;22.65;10.95;;;;;;;;;;10189521;28;20076;-58
2022/03/29 08:42:22;;;;;;;18.05;11.07;;;;;;;;;;10195563;28;20553;-59
2022/03/29 08:47:21;;;;;;;21.35;11.35;;;;;;;;;;10189731;28;20073;-58
2022/03/29 08:52:20;;;;;;;18.40;11.30;;;;;;;;;;10192985;28;20080;-59
2022/03/29 08:57:20;;;;;;;22.27;11.18;;;;;;;;;;10199462;28;20030;-59
2022/03/29 09:02:19;;;;;;;17.20;12.30;;;;;;;;;;10199632;28;20497;-59
2022/03/29 09:07:17;;;;;;;25.73;13.00;;;;;;;;;;10199362;28;20084;-59
2022/03/29 09:12:17;;;;;;;18.55;11.70;;;;;;;;;;10199401;28;20471;-58
2022/03/29 09:17:26;;;;;;;22.15;11.52;;;;;;;;;;10190806;28;20436;-58
2022/03/29 09:22:35;;;;;;;18.20;12.25;;;;;;;;;;10186959;28;20499;-58
2022/03/29 09:27:48;;;;;;;12.38;10.30;;;;;;;;;;10159003;28;20085;-59
2022/03/29 09:33:07;;;;;;;21.35;10.60;;;;;;;;;;10158688;28;20463;-59
2022/03/29 09:43:29;;;;;;;17.98;10.68;;;;;;;;;;10500032;27;20387;-59
2022/03/29 09:48:29;;;;;;;14.57;10.40;;;;;;;;;;10516232;27;20054;-60
2022/03/29 09:53:33;;;;;;;23.92;11.18;;;;;;;;;;10515861;27;20046;-59
2022/03/29 09:58:33;;;;;;;19.67;12.10;;;;;;;;;;10484340;27;20530;-59
2022/03/29 10:03:33;;;;;;;15.95;9.98;;;;;;;;;;10501653;27;20070;-59
2022/03/29 10:13:50;;;;;;;16.63;10.05;;;;;;;;;;10501728;27;20093;-60
2022/03/29 10:18:48;;;;;;;14.35;9.02;;;;;;;;;;10502965;27;20081;-60
2022/03/29 10:23:49;;;;;;;12.75;9.23;;;;;;;;;;10501652;27;20054;-60
2022/03/29 10:28:47;;;;;;;18.95;9.25;;;;;;;;;;10496589;27;20962;-58
2022/03/29 10:33:47;;;;;;;14.45;9.65;;;;;;;;;;10481457;27;20499;-59
2022/03/29 10:38:55;;;;;;;12.65;8.90;;;;;;;;;;10471838;27;20052;-58
2022/03/29 10:43:53;;;;;;;14.00;9.13;;;;;;;;;;10486216;27;20070;-59
2022/03/29 10:49:06;;;;;;;18.27;8.93;;;;;;;;;;10471866;27;20043;-58
2022/03/29 10:54:19;;;;;;;17.77;8.15;;;;;;;;;;10447917;27;20097;-59
2022/03/29 10:59:19;;;;;;;15.23;8.18;;;;;;;;;;10442641;27;20496;-58
2022/03/29 11:04:20;;;;;;;11.23;8.35;;;;;;;;;;10442969;27;20082;-59
2022/03/29 11:09:19;;;;;;;19.35;8.73;;;;;;;;;;10442266;27;20040;-59
2022/03/29 11:14:39;;;;;;;14.77;10.38;;;;;;;;;;10441536;27;20066;-59
2022/03/29 11:19:42;;;;;;;22.80;7.63;;;;;;;;;;10442400;27;20496;-59
2022/03/29 11:24:41;;;;;;;14.50;8.77;;;;;;;;;;10442268;27;20054;-58
2022/03/29 11:29:41;;;;;;;11.45;8.90;;;;;;;;;;10463833;27;20047;-58
2022/03/29 11:34:40;;;;;;;14.23;7.22;;;;;;;;;;10448498;27;20419;-59
2022/03/29 11:39:39;;;;;;;15.07;8.38;;;;;;;;;;10483310;27;20105;-59
2022/03/29 11:44:37;;;;;;;13.38;8.57;;;;;;;;;;10451166;27;20074;-59
2022/03/29 11:49:40;;;;;;;18.40;11.13;;;;;;;;;;10462756;27;20058;-58
2022/03/29 11:54:39;;;;;;;16.02;11.52;;;;;;;;;;10483272;27;20061;-58
2022/03/29 11:59:38;;;;;;;17.25;10.55;;;;;;;;;;10483008;27;20039;-58
2022/03/29 12:04:37;;;;;;;12.77;9.38;;;;;;;;;;10468142;27;20077;-58
2022/03/29 12:09:37;;;;;;;11.73;8.50;;;;;;;;;;10469002;27;20066;-58
2022/03/29 12:14:35;;;;;;;11.82;8.18;;;;;;;;;;10482607;27;20035;-58
2022/03/29 12:19:34;;;;;;;11.20;8.45;;;;;;;;;;10481851;27;20093;-58
2022/03/29 12:24:33;;;;;;;15.90;8.15;;;;;;;;;;10467216;27;20043;-58
2022/03/29 12:29:34;;;;;;;12.68;8.63;;;;;;;;;;10468247;27;20276;-58
2022/03/29 12:34:33;;;;;;;15.35;9.18;;;;;;;;;;10481873;27;20039;-59
2022/03/29 12:39:32;;;;;;;14.68;8.10;;;;;;;;;;10480567;27;20624;-58
2022/03/29 12:44:31;;;;;;;10.90;8.73;;;;;;;;;;10480487;27;20051;-59
2022/03/29 12:49:31;;;;;;;15.85;8.88;;;;;;;;;;10481082;27;20054;-59
2022/03/29 12:54:34;;;;;;;18.60;8.48;;;;;;;;;;10466103;27;20077;-59
2022/03/29 12:59:34;;;;;;;15.35;10.95;;;;;;;;;;10466360;27;20104;-59
2022/03/29 13:04:37;;;;;;;19.27;9.55;;;;;;;;;;10480442;27;20473;-58
2022/03/29 13:09:36;;;;;;;15.40;8.40;;;;;;;;;;10480100;27;20042;-59
2022/03/29 13:14:55;;;;;;;12.02;7.93;;;;;;;;;;10480250;27;20049;-59
2022/03/29 13:19:55;;;;;;;13.45;9.98;;;;;;;;;;10479946;27;20047;-58
2022/03/29 13:24:53;;;;;;;17.38;11.43;;;;;;;;;;10469843;27;20075;-59
2022/03/29 13:29:51;;;;;;;17.98;9.88;;;;;;;;;;10443553;27;20160;-58
2022/03/29 13:34:49;;;;;;;16.63;9.95;;;;;;;;;;10437162;27;20054;-58
2022/03/29 13:39:49;;;;;;;17.98;9.32;;;;;;;;;;10442970;27;20079;-58
2022/03/29 13:44:47;;;;;;;15.10;8.30;;;;;;;;;;10460304;27;20062;-58
2022/03/29 13:49:46;;;;;;;18.33;9.85;;;;;;;;;;10453149;27;20078;-57
2022/03/29 13:54:44;;;;;;;13.80;7.25;;;;;;;;;;10442505;27;20094;-57
2022/03/29 13:59:44;;;;;;;11.73;7.80;;;;;;;;;;10457187;27;20527;-58
2022/03/29 14:04:42;;;;;;;15.07;8.70;;;;;;;;;;10465472;27;20502;-58
2022/03/29 14:09:41;;;;;;;13.93;8.43;;;;;;;;;;10465008;27;20374;-59
2022/03/29 14:14:39;;;;;;;12.30;8.10;;;;;;;;;;10465049;27;20046;-59
2022/03/29 14:19:38;;;;;;;15.35;8.32;;;;;;;;;;10465269;27;20046;-58
2022/03/29 14:24:37;;;;;;;12.02;8.52;;;;;;;;;;10464667;27;20074;-59
2022/03/29 14:29:41;;;;;;;11.17;8.60;;;;;;;;;;10471006;27;20077;-58
2022/03/29 14:34:51;;;;;;;18.65;10.43;;;;;;;;;;10472754;27;20299;-59
2022/03/29 14:39:50;;;;;;;14.98;9.85;;;;;;;;;;10471899;27;20085;-59
2022/03/29 14:44:48;;;;;;;15.20;9.60;;;;;;;;;;10472608;27;20074;-60
2022/03/29 14:49:46;;;;;;;12.32;9.40;;;;;;;;;;10472110;27;20078;-59
2022/03/29 14:54:46;;;;;;;16.50;9.57;;;;;;;;;;10472214;27;20039;-58
2022/03/29 14:59:44;;;;;;;14.55;9.10;;;;;;;;;;10471998;27;20042;-58
2022/03/29 15:04:43;;;;;;;16.13;9.70;;;;;;;;;;10471754;27;20067;-59
2022/03/29 15:09:41;;;;;;;27.60;12.70;;;;;;;;;;10453388;27;20074;-59
2022/03/29 15:14:41;;;;;;;21.73;12.45;;;;;;;;;;10464699;27;20074;-59
2022/03/29 15:19:39;;;;;;;24.27;14.88;;;;;;;;;;10471400;27;20039;-59
2022/03/29 15:24:38;;;;;;;22.02;10.15;;;;;;;;;;10470796;27;20082;-59
2022/03/29 15:29:36;;;;;;;26.75;15.68;;;;;;;;;;10452396;27;20423;-59
2022/03/29 15:34:36;;;;;;;55.10;32.10;;;;;;;;;;10467440;27;20503;-60
2022/03/29 15:39:35;;;;;;;20.25;9.65;;;;;;;;;;10470199;27;20061;-60
2022/03/29 15:44:41;;;;;;;46.15;25.58;;;;;;;;;;10470327;27;20497;-59
2022/03/29 15:49:42;;;;;;;32.85;24.23;;;;;;;;;;10469707;27;20058;-59
2022/03/29 15:54:40;;;;;;;90.07;61.28;;;;;;;;;;10469127;27;20427;-59
2022/03/29 15:59:40;;;;;;;54.42;30.05;;;;;;;;;;10469748;27;20057;-60
2022/03/29 16:04:38;;;;;;;61.53;43.67;;;;;;;;;;10469384;27;20577;-59
2022/03/29 16:09:40;;;;;;;41.90;26.83;;;;;;;;;;10469204;27;20463;-58
2022/03/29 16:14:39;;;;;;;44.25;26.80;;;;;;;;;;10469027;27;20035;-58
2022/03/29 16:19:38;;;;;;;25.67;16.10;;;;;;;;;;10467817;27;20454;-59
2022/03/29 16:24:38;;;;;;;25.20;18.02;;;;;;;;;;10468157;27;20096;-59
2022/03/29 16:29:57;;;;;;;18.45;12.82;;;;;;;;;;10468284;27;20055;-59
2022/03/29 16:34:55;;;;;;;27.90;21.25;;;;;;;;;;10468230;27;20081;-59
2022/03/29 16:39:55;;;;;;;17.00;12.98;;;;;;;;;;10467764;27;20078;-58
2022/03/29 16:44:54;;;;;;;17.88;9.55;;;;;;;;;;10467246;27;20074;-58
2022/03/29 16:49:52;;;;;;;38.88;21.08;;;;;;;;;;10466488;27;20042;-59
2022/03/29 16:54:50;;;;;;;19.27;16.48;;;;;;;;;;10466886;27;20039;-58
2022/03/29 16:59:50;;;;;;;92.35;82.15;;;;;;;;;;10466735;27;20050;-59
2022/03/29 17:04:48;;;;;;;111.60;99.55;;;;;;;;;;10466864;27;20081;-59
2022/03/29 17:09:47;;;;;;;54.83;46.55;;;;;;;;;;10466337;27;20074;-59
2022/03/29 17:14:45;;;;;;;43.40;32.95;;;;;;;;;;10467081;27;20047;-58
2022/03/29 17:19:45;;;;;;;53.78;39.28;;;;;;;;;;10463022;27;20062;-59
2022/03/29 17:24:44;;;;;;;25.27;19.45;;;;;;;;;;10464349;27;20071;-60
2022/03/29 17:29:43;;;;;;;20.13;14.32;;;;;;;;;;10466313;27;20042;-58
2022/03/29 17:34:41;;;;;;;17.90;11.32;;;;;;;;;;10466590;27;20041;-59
2022/03/29 17:39:41;;;;;;;25.52;11.02;;;;;;;;;;10465308;27;20073;-60
2022/03/29 17:44:39;;;;;;;18.58;10.75;;;;;;;;;;10466119;27;20097;-59
2022/03/29 17:49:38;;;;;;;28.55;13.02;;;;;;;;;;10465924;27;20411;-59
2022/03/29 17:54:36;;;;;;;23.75;14.05;;;;;;;;;;10466151;27;20471;-60
2022/03/29 17:59:36;;;;;;;15.30;10.57;;;;;;;;;;10465373;27;20077;-59
2022/03/29 18:04:35;;;;;;;18.42;10.02;;;;;;;;;;10472712;27;20117;-59
2022/03/29 18:09:34;;;;;;;18.77;10.57;;;;;;;;;;10487201;27;20418;-59
2022/03/29 18:14:33;;;;;;;17.52;9.82;;;;;;;;;;10487666;27;20058;-60
2022/03/29 18:19:32;;;;;;;19.88;10.40;;;;;;;;;;10486517;27;20081;-59
2022/03/29 18:24:31;;;;;;;12.75;9.07;;;;;;;;;;10453242;27;20101;-58
2022/03/29 18:29:29;;;;;;;15.63;9.18;;;;;;;;;;10445925;27;20098;-59
2022/03/29 18:34:28;;;;;;;11.65;8.10;;;;;;;;;;10457115;27;20070;-58
2022/03/29 18:39:29;;;;;;;17.27;8.95;;;;;;;;;;10468878;27;20534;-59
2022/03/29 18:44:27;;;;;;;15.23;9.68;;;;;;;;;;10472698;27;20089;-58
2022/03/29 18:49:25;;;;;;;13.70;9.23;;;;;;;;;;10454578;27;20480;-58
2022/03/29 18:54:23;;;;;;;12.32;9.50;;;;;;;;;;10465335;27;20051;-58
2022/03/29 18:59:23;;;;;;;17.30;10.52;;;;;;;;;;10449627;27;20455;-59
2022/03/29 19:04:22;;;;;;;18.67;9.35;;;;;;;;;;10469466;27;20081;-59
2022/03/29 19:09:20;;;;;;;16.50;11.82;;;;;;;;;;10472771;27;20533;-59
2022/03/29 19:14:19;;;;;;;23.38;12.43;;;;;;;;;;10462081;27;20351;-55
2022/03/29 19:19:19;;;;;;;11.50;9.07;;;;;;;;;;10463759;27;20074;-59
2022/03/29 19:24:18;;;;;;;14.63;10.70;;;;;;;;;;10462826;27;20070;-59
2022/03/29 19:29:16;;;;;;;15.88;9.95;;;;;;;;;;10470809;27;20082;-59
2022/03/29 19:34:15;;;;;;;16.13;11.45;;;;;;;;;;10468681;27;20054;-59
2022/03/29 19:39:33;;;;;;;14.35;10.30;;;;;;;;;;10471324;27;20074;-59
2022/03/29 19:44:34;;;;;;;20.95;10.00;;;;;;;;;;10454883;27;20074;-59
2022/03/29 19:49:32;;;;;;;14.80;10.10;;;;;;;;;;10458158;27;20075;-59
2022/03/29 19:54:31;;;;;;;17.23;10.55;;;;;;;;;;10452257;27;20155;-59
2022/03/29 19:59:29;;;;;;;14.23;9.27;;;;;;;;;;10449781;27;20468;-58
2022/03/29 20:04:29;;;;;;;17.23;12.00;;;;;;;;;;10466088;27;20070;-59
2022/03/29 20:09:28;;;;;;;21.73;12.95;;;;;;;;;;10465422;27;20031;-59
2022/03/29 20:14:26;;;;;;;16.83;11.38;;;;;;;;;;10468991;27;20042;-58
2022/03/29 20:19:25;;;;;;;11.30;8.95;;;;;;;;;;10473617;27;20070;-57
2022/03/29 20:24:25;;;;;;;19.83;9.48;;;;;;;;;;10469890;27;20070;-58
2022/03/29 20:29:25;;;;;;;16.88;10.02;;;;;;;;;;10474073;27;20070;-58
2022/03/29 20:34:24;;;;;;;15.68;9.65;;;;;;;;;;10456836;27;20077;-58
2022/03/29 20:39:23;;;;;;;12.57;9.55;;;;;;;;;;10468225;27;20043;-58
2022/03/29 20:44:23;;;;;;;12.93;8.73;;;;;;;;;;10465698;27;20077;-58
2022/03/29 20:49:24;;;;;;;12.88;9.38;;;;;;;;;;10477313;27;20062;-58
2022/03/29 20:54:30;;;;;;;16.13;10.25;;;;;;;;;;10478290;27;20070;-58
2022/03/29 20:59:30;;;;;;;15.15;9.52;;;;;;;;;;10480372;27;20070;-59
2022/03/29 21:04:28;;;;;;;12.30;8.68;;;;;;;;;;10467998;27;20077;-58
2022/03/29 21:09:28;;;;;;;15.70;8.27;;;;;;;;;;10467179;27;20065;-58
2022/03/29 21:14:26;;;;;;;14.80;8.38;;;;;;;;;;10467895;27;20073;-59
2022/03/29 21:19:26;;;;;;;12.85;8.60;;;;;;;;;;10466443;27;20070;-58
2022/03/29 21:24:24;;;;;;;12.35;8.88;;;;;;;;;;10466762;27;20085;-58
2022/03/29 21:29:22;;;;;;;16.40;8.25;;;;;;;;;;10465737;27;20034;-58
2022/03/29 21:34:21;;;;;;;16.05;8.13;;;;;;;;;;10466737;27;20081;-58
2022/03/29 21:39:20;;;;;;;13.93;8.23;;;;;;;;;;10465903;27;20104;-59
2022/03/29 21:44:18;;;;;;;14.90;8.35;;;;;;;;;;10466457;27;20071;-58
2022/03/29 21:49:17;;;;;;;13.68;8.52;;;;;;;;;;10466451;27;20066;-58
2022/03/29 21:54:35;;;;;;;14.82;9.70;;;;;;;;;;10469623;27;20519;-59
2022/03/29 21:59:52;;;;;;;20.50;8.73;;;;;;;;;;10469014;27;20051;-59
2022/03/29 22:05:09;;;;;;;13.75;8.88;;;;;;;;;;10467384;27;20527;-59
2022/03/29 22:10:09;;;;;;;10.45;7.97;;;;;;;;;;10467468;27;20399;-61
2022/03/29 22:15:08;;;;;;;14.38;8.05;;;;;;;;;;10466669;27;20070;-59
2022/03/29 22:20:17;;;;;;;12.50;7.80;;;;;;;;;;10447519;27;20086;-58
2022/03/29 22:25:17;;;;;;;12.18;8.02;;;;;;;;;;10448451;27;20086;-58
2022/03/29 22:30:15;;;;;;;12.15;8.23;;;;;;;;;;10466058;27;20042;-58
2022/03/29 22:35:15;;;;;;;15.23;8.60;;;;;;;;;;10466341;27;20049;-58
2022/03/29 22:40:13;;;;;;;14.82;7.68;;;;;;;;;;10465180;27;20047;-58
2022/03/29 22:45:13;;;;;;;14.10;8.48;;;;;;;;;;10450580;27;20067;-58
2022/03/29 22:50:13;;;;;;;12.27;7.88;;;;;;;;;;10468897;27;20042;-58
2022/03/29 22:55:11;;;;;;;15.57;8.95;;;;;;;;;;10469541;27;20066;-58
2022/03/29 23:00:10;;;;;;;17.65;9.20;;;;;;;;;;10473283;27;20074;-59
2022/03/29 23:05:10;;;;;;;14.02;8.98;;;;;;;;;;10472882;27;20074;-59
2022/03/29 23:10:09;;;;;;;18.55;9.35;;;;;;;;;;10471148;27;20035;-59
2022/03/29 23:15:08;;;;;;;14.38;9.48;;;;;;;;;;10474494;27;20086;-59
2022/03/29 23:20:07;;;;;;;15.18;8.30;;;;;;;;;;10471636;27;20074;-58
2022/03/29 23:25:07;;;;;;;16.95;9.07;;;;;;;;;;10471077;27;20074;-58
2022/03/29 23:30:07;;;;;;;18.92;8.43;;;;;;;;;;10471977;27;20039;-58
2022/03/29 23:35:06;;;;;;;15.05;8.90;;;;;;;;;;10468606;27;20039;-59
2022/03/29 23:40:05;;;;;;;13.77;9.48;;;;;;;;;;10470719;27;20085;-58
2022/03/29 23:45:05;;;;;;;17.05;9.00;;;;;;;;;;10471495;27;20121;-58
2022/03/29 23:50:03;;;;;;;19.05;10.13;;;;;;;;;;10471209;27;20077;-59
2022/03/29 23:55:02;;;;;;;15.52;9.10;;;;;;;;;;10470826;27;20043;-58
